createdAt,value
2023-01-21T00:00:57.930Z,31.27
2023-01-21T00:03:24.962Z,34.97
2023-01-21T00:05:52.105Z,30.70
2023-01-21T00:08:19.011Z,32.37
2023-01-21T00:10:45.841Z,32.77
2023-01-21T00:13:12.634Z,38.27
2023-01-21T00:15:39.676Z,34.70
2023-01-21T00:18:06.961Z,36.90
2023-01-21T00:20:33.831Z,35.73
2023-01-21T00:23:00.764Z,34.37
2023-01-21T00:25:27.571Z,32.50
2023-01-21T00:27:54.412Z,34.03
2023-01-21T00:30:21.158Z,37.47
2023-01-21T00:32:47.904Z,34.67
2023-01-21T00:35:14.928Z,38.97
2023-01-21T00:37:41.727Z,29.60
2023-01-21T00:40:10.134Z,37.83
2023-01-21T00:42:36.883Z,32.77
2023-01-21T00:45:04.020Z,41.33
2023-01-21T00:47:30.809Z,29.77
2023-01-21T00:49:57.521Z,36.07
2023-01-21T00:52:24.343Z,33.30
2023-01-21T00:54:51.030Z,37.73
2023-01-21T00:57:17.723Z,36.67
2023-01-21T00:59:44.717Z,35.37
2023-01-21T01:02:11.502Z,39.03
2023-01-21T01:04:38.307Z,36.37
2023-01-21T01:07:05.121Z,37.20
2023-01-21T01:09:31.871Z,39.97
2023-01-21T01:11:58.992Z,36.37
2023-01-21T01:14:25.692Z,40.17
2023-01-21T01:16:52.417Z,37.60
2023-01-21T01:19:19.147Z,39.67
2023-01-21T01:21:46.273Z,39.80
2023-01-21T01:24:12.991Z,35.47
2023-01-21T01:26:42.267Z,33.47
2023-01-21T01:29:11.902Z,39.03
2023-01-21T01:31:38.695Z,36.70
2023-01-21T01:34:05.468Z,33.73
2023-01-21T01:36:32.189Z,33.27
2023-01-21T01:38:59.181Z,34.47
2023-01-21T01:41:29.450Z,32.53
2023-01-21T01:44:26.732Z,29.87
2023-01-21T01:46:58.431Z,37.33
2023-01-21T01:49:25.277Z,34.70
2023-01-21T01:51:56.185Z,34.80
2023-01-21T01:54:28.737Z,32.43
2023-01-21T01:56:58.953Z,33.40
2023-01-21T01:59:26.597Z,31.77
2023-01-21T02:01:54.077Z,35.70
2023-01-21T02:04:24.590Z,32.07
2023-01-21T02:06:54.535Z,30.83
2023-01-21T02:09:22.146Z,30.13
2023-01-21T02:11:49.220Z,33.73
2023-01-21T02:14:16.461Z,27.07
2023-01-21T02:17:14.670Z,36.07
2023-01-21T02:20:09.355Z,33.03
2023-01-21T02:22:48.205Z,30.13
2023-01-21T02:25:27.494Z,28.30
2023-01-21T02:28:00.739Z,28.43
2023-01-21T02:31:07.257Z,29.47
2023-01-21T02:33:55.936Z,30.10
2023-01-21T02:36:43.896Z,29.17
2023-01-21T02:39:32.114Z,29.53
2023-01-21T02:42:07.298Z,34.43
2023-01-21T02:44:38.448Z,29.80
2023-01-21T02:47:19.407Z,33.30
2023-01-21T02:49:53.064Z,33.43
2023-01-21T02:52:24.495Z,28.23
2023-01-21T02:54:54.145Z,29.33
2023-01-21T02:57:47.618Z,31.67
2023-01-21T03:00:26.365Z,33.07
2023-01-21T03:03:11.875Z,30.03
2023-01-21T03:06:03.694Z,28.93
2023-01-21T03:09:11.350Z,27.77
2023-01-21T03:11:38.282Z,30.60
2023-01-21T03:14:44.902Z,32.07
2023-01-21T03:17:21.611Z,31.70
2023-01-21T03:20:24.700Z,32.47
2023-01-21T03:22:59.344Z,30.37
2023-01-21T03:25:28.443Z,30.00
2023-01-21T03:27:56.312Z,29.10
2023-01-21T03:30:25.347Z,27.57
2023-01-21T03:32:54.598Z,34.03
2023-01-21T03:35:26.751Z,32.27
2023-01-21T03:38:20.864Z,36.80
2023-01-21T03:41:18.015Z,31.80
2023-01-21T03:43:45.604Z,26.90
2023-01-21T03:46:27.072Z,26.10
2023-01-21T03:49:04.692Z,28.93
2023-01-21T03:51:39.101Z,31.33
2023-01-21T03:54:06.308Z,31.00
2023-01-21T03:56:32.989Z,27.50
2023-01-21T03:58:59.740Z,29.57
2023-01-21T04:01:26.434Z,28.30
2023-01-21T04:03:53.204Z,30.10
2023-01-21T04:06:22.693Z,31.63
2023-01-21T04:08:49.839Z,33.50
2023-01-21T04:11:17.057Z,29.13
2023-01-21T04:13:43.900Z,29.17
2023-01-21T04:16:10.635Z,31.87
2023-01-21T04:18:37.542Z,32.97
2023-01-21T04:21:04.423Z,28.40
2023-01-21T04:23:31.231Z,31.43
2023-01-21T04:25:58.021Z,30.83
2023-01-21T04:28:24.753Z,32.00
2023-01-21T04:30:51.470Z,29.90
2023-01-21T04:33:18.481Z,29.57
2023-01-21T04:35:45.291Z,26.90
2023-01-21T04:38:12.173Z,33.57
2023-01-21T04:40:38.983Z,31.07
2023-01-21T04:43:05.752Z,27.47
2023-01-21T04:45:32.465Z,30.13
2023-01-21T04:47:59.227Z,30.37
2023-01-21T04:50:26.169Z,30.13
2023-01-21T04:52:52.961Z,29.07
2023-01-21T04:55:19.779Z,29.33
2023-01-21T04:57:46.608Z,29.73
2023-01-21T05:00:13.811Z,27.43
2023-01-21T05:02:40.642Z,28.10
2023-01-21T05:05:07.780Z,29.47
2023-01-21T05:07:35.016Z,31.70
2023-01-21T05:10:01.749Z,30.97
2023-01-21T05:12:28.493Z,28.67
2023-01-21T05:14:57.788Z,29.77
2023-01-21T05:17:24.738Z,27.93
2023-01-21T05:19:51.521Z,29.53
2023-01-21T05:22:18.680Z,30.70
2023-01-21T05:24:45.376Z,32.53
2023-01-21T05:27:12.071Z,29.20
2023-01-21T05:29:39.779Z,30.73
2023-01-21T05:32:06.623Z,26.97
2023-01-21T05:34:33.315Z,29.83
2023-01-21T05:37:00.003Z,30.63
2023-01-21T05:39:26.766Z,29.23
2023-01-21T05:41:53.474Z,26.67
2023-01-21T05:44:20.212Z,26.93
2023-01-21T05:46:46.970Z,31.37
2023-01-21T05:49:13.692Z,33.17
2023-01-21T05:51:40.507Z,31.33
2023-01-21T05:54:07.237Z,32.40
2023-01-21T05:56:34.017Z,32.17
2023-01-21T05:59:00.772Z,33.13
2023-01-21T06:01:27.467Z,29.13
2023-01-21T06:03:54.253Z,33.43
2023-01-21T06:06:21.625Z,25.60
2023-01-21T06:08:48.344Z,28.20
2023-01-21T06:11:15.085Z,31.23
2023-01-21T06:13:41.808Z,30.57
2023-01-21T06:16:08.718Z,31.13
2023-01-21T06:18:35.563Z,28.97
2023-01-21T06:21:02.402Z,37.00
2023-01-21T06:23:29.234Z,28.60
2023-01-21T06:26:00.687Z,32.53
2023-01-21T06:28:27.894Z,31.00
2023-01-21T06:30:54.751Z,33.33
2023-01-21T06:33:21.541Z,32.57
2023-01-21T06:35:48.372Z,31.57
2023-01-21T06:38:15.127Z,26.73
2023-01-21T06:40:42.974Z,30.97
2023-01-21T06:43:09.849Z,30.03
2023-01-21T06:45:36.666Z,26.93
2023-01-21T06:48:03.603Z,29.30
2023-01-21T06:50:30.385Z,34.10
2023-01-21T06:52:57.078Z,28.13
2023-01-21T06:55:23.824Z,32.03
2023-01-21T06:57:50.555Z,32.93
2023-01-21T07:00:18.857Z,34.53
2023-01-21T07:02:45.746Z,31.90
2023-01-21T07:05:14.963Z,32.20
2023-01-21T07:07:42.021Z,33.20
2023-01-21T07:10:09.572Z,33.33
2023-01-21T07:12:36.291Z,32.93
2023-01-21T07:15:03.175Z,32.80
2023-01-21T07:17:29.936Z,34.80
2023-01-21T07:19:56.716Z,29.40
2023-01-21T07:22:23.438Z,32.63
2023-01-21T07:24:50.189Z,30.60
2023-01-21T07:27:16.984Z,35.03
2023-01-21T07:29:43.756Z,32.50
2023-01-21T07:32:10.447Z,31.53
2023-01-21T07:34:37.134Z,32.60
2023-01-21T07:37:04.068Z,34.50
2023-01-21T07:39:30.855Z,30.43
2023-01-21T07:41:57.632Z,37.47
2023-01-21T07:44:24.454Z,42.73
2023-01-21T07:46:51.951Z,33.20
2023-01-21T07:49:18.761Z,42.83
2023-01-21T07:51:46.260Z,37.10
2023-01-21T07:54:13.978Z,38.53
2023-01-21T07:56:40.692Z,42.37
2023-01-21T07:59:07.547Z,40.20
2023-01-21T08:01:34.361Z,35.53
2023-01-21T08:04:01.182Z,39.33
2023-01-21T08:06:27.973Z,38.63
2023-01-21T08:08:54.637Z,43.20
2023-01-21T08:11:21.422Z,41.30
2023-01-21T08:13:50.048Z,43.60
2023-01-21T08:16:16.811Z,44.50
2023-01-21T08:18:43.577Z,44.47
2023-01-21T08:21:10.300Z,35.23
2023-01-21T08:23:36.981Z,48.77
2023-01-21T08:26:05.685Z,44.47
2023-01-21T08:28:32.882Z,49.20
2023-01-21T08:31:08.151Z,44.77
2023-01-21T08:33:35.270Z,50.20
2023-01-21T08:36:03.652Z,54.00
2023-01-21T08:38:30.410Z,56.80
2023-01-21T08:40:58.291Z,41.07
2023-01-21T08:43:25.807Z,49.20
2023-01-21T08:45:55.448Z,42.40
2023-01-21T08:48:22.213Z,48.07
2023-01-21T08:50:48.999Z,48.73
2023-01-21T08:53:15.764Z,51.20
2023-01-21T08:55:42.489Z,43.97
2023-01-21T08:58:09.364Z,54.13
2023-01-21T09:00:36.175Z,48.80
2023-01-21T09:03:03.084Z,47.63
2023-01-21T09:05:30.004Z,41.43
2023-01-21T09:07:58.178Z,48.37
2023-01-21T09:10:44.110Z,53.23
2023-01-21T09:13:11.181Z,47.53
2023-01-21T09:15:39.720Z,45.70
2023-01-21T09:18:06.900Z,41.10
2023-01-21T09:20:33.652Z,44.87
2023-01-21T09:23:00.384Z,49.37
2023-01-21T09:25:27.148Z,42.70
2023-01-21T09:27:53.842Z,51.60
2023-01-21T09:30:20.682Z,45.93
2023-01-21T09:32:47.451Z,48.43
2023-01-21T09:35:14.341Z,58.23
2023-01-21T09:37:41.211Z,51.63
2023-01-21T09:40:14.568Z,48.80
2023-01-21T09:42:42.756Z,49.77
2023-01-21T09:45:15.822Z,50.40
2023-01-21T09:47:46.332Z,41.17
2023-01-21T09:50:14.866Z,40.87
2023-01-21T09:53:06.486Z,49.07
2023-01-21T09:55:47.090Z,51.50
2023-01-21T09:58:16.553Z,47.17
2023-01-21T10:00:58.672Z,42.20
2023-01-21T10:04:35.892Z,43.63
2023-01-21T10:07:29.830Z,45.13
2023-01-21T10:10:29.186Z,43.73
2023-01-21T10:13:03.236Z,45.30
2023-01-21T10:15:42.303Z,44.40
2023-01-21T10:18:17.379Z,52.33
2023-01-21T10:20:58.959Z,60.70
2023-01-21T10:23:42.777Z,48.30
2023-01-21T10:26:13.153Z,47.30
2023-01-21T10:28:44.250Z,51.23
2023-01-21T10:31:29.581Z,45.27
2023-01-21T10:33:57.414Z,50.47
2023-01-21T10:36:35.604Z,50.50
2023-01-21T10:39:14.399Z,49.57
2023-01-21T10:42:08.596Z,43.20
2023-01-21T10:44:44.118Z,48.27
2023-01-21T10:47:38.542Z,46.13
2023-01-21T10:50:27.226Z,47.93
2023-01-21T10:52:56.789Z,42.43
2023-01-21T10:55:35.505Z,42.13
2023-01-21T10:58:25.454Z,46.40
2023-01-21T11:00:54.073Z,45.30
2023-01-21T11:03:23.821Z,49.30
2023-01-21T11:05:50.668Z,42.50
2023-01-21T11:08:23.648Z,44.10
2023-01-21T11:10:55.803Z,47.50
2023-01-21T11:13:23.388Z,43.73
2023-01-21T11:15:59.295Z,41.77
2023-01-21T11:18:39.514Z,43.30
2023-01-21T11:21:22.140Z,51.90
2023-01-21T11:24:00.323Z,38.83
2023-01-21T11:26:29.593Z,42.47
2023-01-21T11:29:16.885Z,39.07
2023-01-21T11:32:05.085Z,43.33
2023-01-21T11:34:32.113Z,34.90
2023-01-21T11:37:04.507Z,36.83
2023-01-21T11:39:40.476Z,33.43
2023-01-21T11:42:15.745Z,35.10
2023-01-21T11:44:59.234Z,36.13
2023-01-21T11:47:38.855Z,34.33
2023-01-21T11:50:30.240Z,36.30
2023-01-21T11:53:09.140Z,33.47
2023-01-21T11:55:46.916Z,32.97
2023-01-21T11:58:39.217Z,33.73
2023-01-21T12:01:11.024Z,33.57
2023-01-21T12:03:45.866Z,34.73
2023-01-21T12:06:30.581Z,37.50
2023-01-21T12:09:03.589Z,31.13
2023-01-21T12:11:32.675Z,32.43
2023-01-21T12:14:06.961Z,31.73
2023-01-21T12:16:35.265Z,33.77
2023-01-21T12:19:10.948Z,32.93
2023-01-21T12:22:02.817Z,30.33
2023-01-21T12:24:36.204Z,28.40
2023-01-21T12:27:46.077Z,28.20
2023-01-21T12:30:43.907Z,30.43
2023-01-21T12:33:19.736Z,26.93
2023-01-21T12:35:51.388Z,24.83
2023-01-21T12:38:46.583Z,26.23
2023-01-21T12:41:28.649Z,26.07
2023-01-21T12:44:15.550Z,24.03
2023-01-21T12:46:47.329Z,26.67
2023-01-21T12:49:48.091Z,28.67
2023-01-21T12:52:34.512Z,21.93
2023-01-21T12:55:12.125Z,23.23
2023-01-21T12:57:44.260Z,21.70
2023-01-21T13:00:22.159Z,24.27
2023-01-21T13:03:12.153Z,22.83
2023-01-21T13:06:13.577Z,22.53
2023-01-21T13:08:40.251Z,25.23
2023-01-21T13:11:21.052Z,23.47
2023-01-21T13:13:55.500Z,21.97
2023-01-21T13:16:26.101Z,25.90
2023-01-21T13:18:54.701Z,25.43
2023-01-21T13:21:39.845Z,26.23
2023-01-21T13:24:21.345Z,24.40
2023-01-21T13:26:54.185Z,23.83
2023-01-21T13:29:42.453Z,27.30
2023-01-21T13:32:15.099Z,24.70
2023-01-21T13:35:23.111Z,26.10
2023-01-21T13:38:18.157Z,23.77
2023-01-21T13:40:58.775Z,26.67
2023-01-21T13:43:31.133Z,28.47
2023-01-21T13:46:16.722Z,22.87
2023-01-21T13:48:56.876Z,23.10
2023-01-21T13:51:29.482Z,26.20
2023-01-21T13:54:18.600Z,24.23
2023-01-21T13:56:54.100Z,23.70
2023-01-21T13:59:42.329Z,27.13
2023-01-21T14:02:15.785Z,23.60
2023-01-21T14:04:55.585Z,24.67
2023-01-21T14:07:45.155Z,22.93
2023-01-21T14:10:27.523Z,24.20
2023-01-21T14:13:15.478Z,21.87
2023-01-21T14:16:02.498Z,24.17
2023-01-21T14:18:43.683Z,23.60
2023-01-21T14:21:20.865Z,20.93
2023-01-21T14:23:59.230Z,21.33
2023-01-21T14:27:03.386Z,20.80
2023-01-21T14:29:51.591Z,22.30
2023-01-21T14:32:34.492Z,19.73
2023-01-21T14:35:16.524Z,21.77
2023-01-21T14:38:05.901Z,23.77
2023-01-21T14:40:34.371Z,20.30
2023-01-21T14:43:01.598Z,19.73
2023-01-21T14:45:50.005Z,21.80
2023-01-21T14:48:34.336Z,20.83
2023-01-21T14:51:07.038Z,21.77
2023-01-21T14:54:09.498Z,21.83
2023-01-21T14:56:37.138Z,19.67
2023-01-21T14:59:39.033Z,22.20
2023-01-21T15:02:28.864Z,25.97
2023-01-21T15:05:26.343Z,22.93
2023-01-21T15:08:30.687Z,20.60
2023-01-21T15:11:06.260Z,21.57
2023-01-21T15:13:33.018Z,23.10
2023-01-21T15:16:38.789Z,24.40
2023-01-21T15:19:08.317Z,23.13
2023-01-21T15:21:41.251Z,22.83
2023-01-21T15:24:21.037Z,20.50
2023-01-21T15:27:14.298Z,25.17
2023-01-21T15:30:03.861Z,24.43
2023-01-21T15:32:34.238Z,23.63
2023-01-21T15:35:31.264Z,22.90
2023-01-21T15:38:13.621Z,21.53
2023-01-21T15:40:44.246Z,27.47
2023-01-21T15:43:27.284Z,23.20
2023-01-21T15:46:18.607Z,22.03
2023-01-21T15:49:05.431Z,24.83
2023-01-21T15:51:53.997Z,24.87
2023-01-21T15:54:43.070Z,22.70
2023-01-21T15:57:21.910Z,28.13
2023-01-21T15:59:59.763Z,26.73
2023-01-21T16:02:33.085Z,25.33
2023-01-21T16:05:22.056Z,20.67
2023-01-21T16:08:10.467Z,21.60
2023-01-21T16:11:01.767Z,26.87
2023-01-21T16:13:57.615Z,34.80
2023-01-21T16:16:49.017Z,28.50
2023-01-21T16:19:19.931Z,31.10
2023-01-21T16:21:52.873Z,36.17
2023-01-21T16:24:24.964Z,33.40
2023-01-21T16:26:51.779Z,41.27
2023-01-21T16:29:18.783Z,36.87
2023-01-21T16:31:51.741Z,31.27
2023-01-21T16:34:42.815Z,32.50
2023-01-21T16:37:25.117Z,34.73
2023-01-21T16:40:12.828Z,36.40
2023-01-21T16:42:44.172Z,33.77
2023-01-21T16:45:20.835Z,34.00
2023-01-21T16:47:56.915Z,33.30
2023-01-21T16:50:26.781Z,31.00
2023-01-21T16:52:56.307Z,31.37
2023-01-21T16:55:28.283Z,29.73
2023-01-21T16:57:57.807Z,32.50
2023-01-21T17:00:26.366Z,29.03
2023-01-21T17:02:54.869Z,36.90
2023-01-21T17:05:23.024Z,29.33
2023-01-21T17:07:54.204Z,32.10
2023-01-21T17:10:24.565Z,40.40
2023-01-21T17:13:00.077Z,40.00
2023-01-21T17:15:36.163Z,45.10
2023-01-21T17:18:04.804Z,34.73
2023-01-21T17:20:45.709Z,32.20
2023-01-21T17:23:29.224Z,31.57
2023-01-21T17:26:02.288Z,26.93
2023-01-21T17:28:37.848Z,34.57
2023-01-21T17:31:15.668Z,26.70
2023-01-21T17:33:43.796Z,34.53
2023-01-21T17:36:16.032Z,31.33
2023-01-21T17:38:45.559Z,35.27
2023-01-21T17:41:31.950Z,29.93
2023-01-21T17:44:00.348Z,36.03
2023-01-21T17:46:28.369Z,35.83
2023-01-21T17:49:17.474Z,37.57
2023-01-21T17:51:45.286Z,30.70
2023-01-21T17:54:41.490Z,30.37
2023-01-21T17:57:35.819Z,25.40
2023-01-21T18:00:04.050Z,32.83
2023-01-21T18:02:30.947Z,33.33
2023-01-21T18:04:57.656Z,31.53
2023-01-21T18:07:32.200Z,33.23
2023-01-21T18:10:03.086Z,32.83
2023-01-21T18:12:29.809Z,33.13
2023-01-21T18:14:56.530Z,28.83
2023-01-21T18:17:25.436Z,28.70
2023-01-21T18:19:52.352Z,29.70
2023-01-21T18:22:24.803Z,28.60
2023-01-21T18:24:51.628Z,30.30
2023-01-21T18:27:20.596Z,28.53
2023-01-21T18:29:48.059Z,27.43
2023-01-21T18:32:15.418Z,27.67
2023-01-21T18:34:42.238Z,26.63
2023-01-21T18:37:14.909Z,29.30
2023-01-21T18:39:41.891Z,29.60
2023-01-21T18:42:16.557Z,24.23
2023-01-21T18:44:44.068Z,28.13
2023-01-21T18:47:16.917Z,25.23
2023-01-21T18:49:44.426Z,24.27
2023-01-21T18:52:14.863Z,28.07
2023-01-21T18:54:41.731Z,30.03
2023-01-21T18:57:18.104Z,29.27
2023-01-21T18:59:44.923Z,26.20
2023-01-21T19:02:16.667Z,32.13
2023-01-21T19:04:44.369Z,47.80
2023-01-21T19:07:19.341Z,31.23
2023-01-21T19:09:46.888Z,25.80
2023-01-21T19:12:16.424Z,27.30
2023-01-21T19:14:43.216Z,23.93
2023-01-21T19:17:15.862Z,24.73
2023-01-21T19:19:42.646Z,26.43
2023-01-21T19:22:14.933Z,21.60
2023-01-21T19:24:42.313Z,20.77
2023-01-21T19:27:19.028Z,23.43
2023-01-21T19:29:45.773Z,25.50
2023-01-21T19:32:15.457Z,23.03
2023-01-21T19:34:42.507Z,21.70
2023-01-21T19:37:20.833Z,24.93
2023-01-21T19:39:47.652Z,37.27
2023-01-21T19:42:16.071Z,25.17
2023-01-21T19:44:43.104Z,25.23
2023-01-21T19:47:24.880Z,28.93
2023-01-21T19:49:51.656Z,32.13
2023-01-21T19:52:18.434Z,33.20
2023-01-21T19:54:45.126Z,34.10
2023-01-21T19:57:17.971Z,34.67
2023-01-21T19:59:45.140Z,33.23
2023-01-21T20:02:12.520Z,27.00
2023-01-21T20:04:39.329Z,24.93
2023-01-21T20:07:07.188Z,29.43
2023-01-21T20:09:33.917Z,28.17
2023-01-21T20:12:03.327Z,36.53
2023-01-21T20:14:31.197Z,47.30
2023-01-21T20:16:57.992Z,29.90
2023-01-21T20:19:24.874Z,24.67
2023-01-21T20:22:02.837Z,26.73
2023-01-21T20:24:34.193Z,24.03
2023-01-21T20:27:06.508Z,23.57
2023-01-21T20:29:36.010Z,23.23
2023-01-21T20:32:05.019Z,25.57
2023-01-21T20:34:32.686Z,21.27
2023-01-21T20:37:00.131Z,22.13
2023-01-21T20:39:26.951Z,24.83
2023-01-21T20:41:53.811Z,28.00
2023-01-21T20:44:20.657Z,24.70
2023-01-21T20:46:47.560Z,23.07
2023-01-21T20:49:14.276Z,26.30
2023-01-21T20:51:40.997Z,29.00
2023-01-21T20:54:07.744Z,35.63
2023-01-21T20:56:34.554Z,24.87
2023-01-21T20:59:01.416Z,21.40
2023-01-21T21:01:28.910Z,37.00
2023-01-21T21:03:55.650Z,26.03
2023-01-21T21:06:32.373Z,22.03
2023-01-21T21:08:59.169Z,26.63
2023-01-21T21:11:26.044Z,23.70
2023-01-21T21:13:52.921Z,23.00
2023-01-21T21:16:24.256Z,22.37
2023-01-21T21:18:51.752Z,21.50
2023-01-21T21:21:20.533Z,22.67
2023-01-21T21:23:48.823Z,25.03
2023-01-21T21:26:18.307Z,29.23
2023-01-21T21:28:46.290Z,24.70
2023-01-21T21:31:14.676Z,24.70
2023-01-21T21:33:42.378Z,23.90
2023-01-21T21:36:16.721Z,19.70
2023-01-21T21:38:44.604Z,25.37
2023-01-21T21:41:34.039Z,22.90
2023-01-21T21:44:01.090Z,23.23
2023-01-21T21:46:46.597Z,23.90
2023-01-21T21:49:13.386Z,22.80
2023-01-21T21:51:40.226Z,21.93
2023-01-21T21:54:08.479Z,23.90
2023-01-21T21:56:35.916Z,26.50
2023-01-21T21:59:03.204Z,25.43
2023-01-21T22:01:31.206Z,27.43
2023-01-21T22:04:02.445Z,26.60
2023-01-21T22:06:29.982Z,27.77
2023-01-21T22:08:58.723Z,28.03
2023-01-21T22:11:26.781Z,29.30
2023-01-21T22:13:54.553Z,29.17
2023-01-21T22:16:24.360Z,25.63
2023-01-21T22:18:52.139Z,28.77
2023-01-21T22:21:21.530Z,24.17
2023-01-21T22:23:48.808Z,24.93
2023-01-21T22:26:18.235Z,24.20
2023-01-21T22:28:45.357Z,23.17
2023-01-21T22:31:18.901Z,21.87
2023-01-21T22:33:46.042Z,30.97
2023-01-21T22:36:18.873Z,25.43
2023-01-21T22:38:46.519Z,23.63
2023-01-21T22:41:16.267Z,25.50
2023-01-21T22:43:48.338Z,27.07
2023-01-21T22:46:17.988Z,22.87
2023-01-21T22:48:46.091Z,24.87
2023-01-21T22:51:15.601Z,23.33
2023-01-21T22:53:45.588Z,22.33
2023-01-21T22:56:14.610Z,21.37
2023-01-21T22:58:41.813Z,23.57
2023-01-21T23:01:09.458Z,21.10
2023-01-21T23:03:37.339Z,21.43
2023-01-21T23:06:08.665Z,24.70
2023-01-21T23:08:38.183Z,19.53
2023-01-21T23:11:06.722Z,21.30
2023-01-21T23:13:34.380Z,19.90
2023-01-21T23:16:01.789Z,23.30
2023-01-21T23:18:29.640Z,20.93
2023-01-21T23:20:56.524Z,23.47
2023-01-21T23:23:24.763Z,24.37
2023-01-21T23:25:52.002Z,21.30
2023-01-21T23:28:18.876Z,20.50
2023-01-21T23:30:46.136Z,21.90
2023-01-21T23:33:13.432Z,23.20
2023-01-21T23:35:40.212Z,21.97
2023-01-21T23:38:06.956Z,22.10
2023-01-21T23:40:33.680Z,22.83
2023-01-21T23:43:00.392Z,26.30
2023-01-21T23:45:27.164Z,23.77
2023-01-21T23:47:54.676Z,19.60
2023-01-21T23:50:21.481Z,24.90
2023-01-21T23:52:48.255Z,20.00
2023-01-21T23:55:15.188Z,22.07
2023-01-21T23:57:41.885Z,19.83
